createdAt,value
2024-02-19T00:01:17.526Z,0.67
2024-02-19T00:11:21.667Z,0.18
2024-02-19T00:13:50.136Z,0.12
2024-02-19T00:16:18.003Z,0.01
2024-02-19T00:18:45.991Z,-0.19
2024-02-19T00:21:17.414Z,-0.36
2024-02-19T00:23:45.234Z,0.33
2024-02-19T00:26:14.740Z,1.40
2024-02-19T00:28:43.347Z,1.81
2024-02-19T00:38:47.789Z,1.35
2024-02-19T00:48:51.332Z,0.83
2024-02-19T00:51:19.235Z,0.67
2024-02-19T00:53:46.971Z,0.56
2024-02-19T00:56:14.841Z,0.47
2024-02-19T01:06:24.875Z,1.61
2024-02-19T01:08:52.774Z,1.31
2024-02-19T01:11:20.711Z,1.88
2024-02-19T01:13:48.564Z,1.77
2024-02-19T01:16:16.462Z,1.50
2024-02-19T01:18:45.242Z,1.26
2024-02-19T01:28:53.527Z,0.41
2024-02-19T01:31:22.672Z,0.19
2024-02-19T01:33:50.469Z,0.01
2024-02-19T01:36:18.739Z,-0.19
2024-02-19T01:38:46.469Z,-0.39
2024-02-19T01:41:14.252Z,-0.61
2024-02-19T01:43:41.974Z,-0.84
2024-02-19T01:46:09.986Z,-0.44
2024-02-19T01:56:24.786Z,0.65
2024-02-19T01:58:52.555Z,0.34
2024-02-19T02:01:20.353Z,0.04
2024-02-19T02:11:29.376Z,-0.73
2024-02-19T02:13:57.159Z,-0.93
2024-02-19T02:16:28.471Z,-1.09
2024-02-19T02:18:56.630Z,-1.26
2024-02-19T02:21:24.714Z,-1.44
2024-02-19T02:23:52.475Z,-0.90
2024-02-19T02:26:20.242Z,0.12
2024-02-19T02:28:48.631Z,0.47
2024-02-19T02:31:16.513Z,0.40
2024-02-19T02:41:22.646Z,-0.54
2024-02-19T02:43:51.099Z,-0.76
2024-02-19T02:53:55.032Z,-1.52
2024-02-19T02:56:22.954Z,-1.73
2024-02-19T02:58:50.985Z,-1.30
2024-02-19T03:01:20.055Z,-0.36
2024-02-19T03:03:48.041Z,0.09
2024-02-19T03:06:15.902Z,-0.09
2024-02-19T03:08:43.941Z,-0.31
2024-02-19T03:18:49.543Z,-1.41
2024-02-19T03:21:18.764Z,-1.67
2024-02-19T03:23:53.236Z,-1.85
2024-02-19T03:26:37.542Z,-1.99
2024-02-19T03:29:13.989Z,-2.06
2024-02-19T03:31:43.224Z,-2.31
2024-02-19T03:34:11.406Z,-1.82
2024-02-19T03:36:39.642Z,-0.82
2024-02-19T03:39:07.524Z,-0.37
2024-02-19T03:41:35.284Z,-0.52
2024-02-19T03:44:02.967Z,-0.67
2024-02-19T03:46:31.938Z,-0.96
2024-02-19T03:48:59.816Z,-1.26
2024-02-19T03:51:27.671Z,-1.42
2024-02-19T03:53:56.003Z,-1.76
2024-02-19T04:03:59.904Z,-2.57
2024-02-19T04:06:27.940Z,-2.78
2024-02-19T04:08:55.839Z,-2.33
2024-02-19T04:11:23.768Z,-1.27
2024-02-19T04:13:51.571Z,-0.87
2024-02-19T04:23:57.057Z,-1.55
2024-02-19T04:26:24.910Z,-1.82
2024-02-19T04:28:57.714Z,-2.06
2024-02-19T04:31:25.562Z,-2.29
2024-02-19T04:33:53.514Z,-2.50
2024-02-19T04:36:21.426Z,-2.70
2024-02-19T04:38:49.199Z,-2.86
2024-02-19T04:41:17.049Z,-2.48
2024-02-19T04:51:24.789Z,-1.37
2024-02-19T04:53:52.861Z,-1.70
2024-02-19T04:56:20.623Z,-1.95
2024-02-19T04:58:48.405Z,-2.17
2024-02-19T05:01:16.297Z,-2.36
2024-02-19T05:03:44.708Z,-2.56
2024-02-19T05:06:12.668Z,-2.75
2024-02-19T05:08:40.583Z,-2.93
2024-02-19T05:11:08.541Z,-3.09
2024-02-19T05:13:39.312Z,-3.26
2024-02-19T05:23:44.770Z,-1.42
2024-02-19T05:33:50.391Z,-2.14
2024-02-19T05:36:18.154Z,-2.33
2024-02-19T05:38:45.992Z,-2.51
2024-02-19T05:41:13.793Z,-2.69
2024-02-19T05:43:43.362Z,-3.05
2024-02-19T05:46:11.837Z,-3.02
2024-02-19T05:48:39.863Z,-3.04
2024-02-19T05:51:07.880Z,-3.18
2024-02-19T05:53:36.040Z,-2.68
2024-02-19T05:56:05.526Z,-1.53
2024-02-19T05:58:33.328Z,-1.04
2024-02-19T06:01:01.598Z,-1.05
2024-02-19T06:03:29.612Z,-1.25
2024-02-19T06:05:57.530Z,-1.43
2024-02-19T06:08:25.617Z,-1.61
2024-02-19T06:10:53.406Z,-1.76
2024-02-19T06:13:21.242Z,-1.86
2024-02-19T06:15:49.167Z,-1.91
2024-02-19T06:26:02.383Z,-1.88
2024-02-19T06:36:07.980Z,0.63
2024-02-19T06:38:35.779Z,0.76
2024-02-19T06:41:04.325Z,0.79
2024-02-19T06:43:32.225Z,0.77
2024-02-19T06:46:00.494Z,0.68
2024-02-19T06:48:28.399Z,0.59
2024-02-19T06:50:56.578Z,0.47
2024-02-19T07:00:59.944Z,0.08
2024-02-19T07:03:28.096Z,-0.00
2024-02-19T07:05:56.102Z,-0.08
2024-02-19T07:08:24.682Z,-0.12
2024-02-19T07:10:53.934Z,0.75
2024-02-19T07:13:21.982Z,1.49
2024-02-19T07:15:50.035Z,1.73
2024-02-19T07:18:17.978Z,1.83
2024-02-19T07:28:22.446Z,2.00
2024-02-19T07:30:50.457Z,1.93
2024-02-19T07:33:18.820Z,1.85
2024-02-19T07:35:47.177Z,1.97
2024-02-19T07:38:14.997Z,2.11
2024-02-19T07:40:42.953Z,2.14
2024-02-19T07:43:10.931Z,2.17
2024-02-19T07:45:38.983Z,2.20
2024-02-19T07:48:08.677Z,2.25
2024-02-19T07:50:36.811Z,2.30
2024-02-19T07:53:05.129Z,2.41
2024-02-19T07:55:33.782Z,2.39
2024-02-19T07:58:01.818Z,2.34
2024-02-19T08:00:29.734Z,2.47
2024-02-19T08:02:57.614Z,2.65
2024-02-19T08:05:25.562Z,2.53
2024-02-19T08:07:53.572Z,2.51
2024-02-19T08:10:21.706Z,2.27
2024-02-19T08:12:50.114Z,2.05
2024-02-19T08:15:18.274Z,2.22
2024-02-19T08:17:46.900Z,2.64
2024-02-19T08:20:14.918Z,2.68
2024-02-19T08:30:18.370Z,2.93
2024-02-19T08:32:46.382Z,3.16
2024-02-19T08:35:14.753Z,3.31
2024-02-19T08:37:43.949Z,3.26
2024-02-19T08:40:12.171Z,3.21
2024-02-19T08:42:40.434Z,3.20
2024-02-19T08:45:10.197Z,3.44
2024-02-19T08:47:38.540Z,3.30
2024-02-19T08:50:07.249Z,3.27
2024-02-19T08:52:35.250Z,3.68
2024-02-19T09:02:59.132Z,4.15
2024-02-19T09:05:26.452Z,4.04
2024-02-19T09:07:53.551Z,4.05
2024-02-19T09:10:20.943Z,3.90
2024-02-19T09:12:48.474Z,3.80
2024-02-19T09:15:15.827Z,3.64
2024-02-19T09:17:43.062Z,3.41
2024-02-19T09:20:11.206Z,3.53
2024-02-19T09:22:40.957Z,3.56
2024-02-19T09:25:08.860Z,3.43
2024-02-19T09:27:37.934Z,3.48
2024-02-19T09:30:06.171Z,3.55
2024-02-19T09:32:33.547Z,3.24
2024-02-19T09:35:04.295Z,3.19
2024-02-19T09:37:31.868Z,3.07
2024-02-19T09:39:59.947Z,3.08
2024-02-19T09:42:28.190Z,3.16
2024-02-19T09:44:55.454Z,3.23
2024-02-19T09:47:22.682Z,3.35
2024-02-19T09:49:50.121Z,3.30
2024-02-19T09:52:29.756Z,3.49
2024-02-19T09:54:57.816Z,3.91
2024-02-19T09:57:26.541Z,3.87
2024-02-19T09:59:53.688Z,3.71
2024-02-19T10:02:20.852Z,3.72
2024-02-19T10:04:51.696Z,4.08
2024-02-19T10:07:19.607Z,4.26
2024-02-19T10:09:50.888Z,4.35
2024-02-19T10:12:20.386Z,4.27
2024-02-19T10:14:48.690Z,4.32
2024-02-19T10:17:23.208Z,4.68
2024-02-19T10:20:06.019Z,4.78
2024-02-19T10:22:34.170Z,4.85
2024-02-19T10:25:08.010Z,5.39
2024-02-19T10:27:36.373Z,5.79
2024-02-19T10:30:05.764Z,6.16
2024-02-19T10:32:33.525Z,6.22
2024-02-19T10:35:00.998Z,6.47
2024-02-19T10:37:28.398Z,6.67
2024-02-19T10:39:56.047Z,6.20
2024-02-19T10:42:23.967Z,5.96
2024-02-19T10:44:51.269Z,5.36
2024-02-19T10:47:18.474Z,4.79
2024-02-19T10:49:59.963Z,4.81
2024-02-19T10:52:28.170Z,4.89
2024-02-19T10:55:05.378Z,5.24
2024-02-19T10:57:54.604Z,5.72
2024-02-19T11:00:26.389Z,6.08
2024-02-19T11:03:07.292Z,6.57
2024-02-19T11:05:38.916Z,6.64
2024-02-19T11:08:16.368Z,6.46
2024-02-19T11:10:44.472Z,6.20
2024-02-19T11:13:13.160Z,6.02
2024-02-19T11:15:43.704Z,6.25
2024-02-19T11:18:18.451Z,5.97
2024-02-19T11:20:47.938Z,5.70
2024-02-19T11:23:19.746Z,5.62
2024-02-19T11:25:47.277Z,5.45
2024-02-19T11:28:14.901Z,5.28
2024-02-19T11:30:42.306Z,5.06
2024-02-19T11:33:10.079Z,5.00
2024-02-19T11:35:37.547Z,5.01
2024-02-19T11:38:05.558Z,5.17
2024-02-19T11:40:33.325Z,5.09
2024-02-19T11:43:01.899Z,5.15
2024-02-19T11:45:31.082Z,5.16
2024-02-19T11:47:58.811Z,4.91
2024-02-19T11:50:28.414Z,4.88
2024-02-19T11:52:58.954Z,4.63
2024-02-19T11:55:30.237Z,4.77
2024-02-19T11:58:01.191Z,4.74
2024-02-19T12:00:33.140Z,4.84
2024-02-19T12:03:00.785Z,4.84
2024-02-19T12:05:28.372Z,4.91
2024-02-19T12:07:56.563Z,5.07
2024-02-19T12:10:24.381Z,4.90
2024-02-19T12:12:52.509Z,5.15
2024-02-19T12:15:20.392Z,5.06
2024-02-19T12:17:52.804Z,4.97
2024-02-19T12:20:20.285Z,4.89
2024-02-19T12:22:48.807Z,4.88
2024-02-19T12:25:16.155Z,4.59
2024-02-19T12:27:43.906Z,4.36
2024-02-19T12:30:11.685Z,4.14
2024-02-19T12:32:40.572Z,4.18
2024-02-19T12:35:08.355Z,4.21
2024-02-19T12:37:36.004Z,4.15
2024-02-19T12:40:04.804Z,4.09
2024-02-19T12:42:34.020Z,4.09
2024-02-19T12:45:01.285Z,4.26
2024-02-19T12:47:29.086Z,4.39
2024-02-19T12:49:57.300Z,4.44
2024-02-19T12:52:28.521Z,4.34
2024-02-19T12:54:56.231Z,4.19
2024-02-19T12:57:23.969Z,4.24
2024-02-19T12:59:51.454Z,4.29
2024-02-19T13:02:18.987Z,4.44
2024-02-19T13:04:47.744Z,4.49
2024-02-19T13:07:15.994Z,4.36
2024-02-19T13:09:44.361Z,4.20
2024-02-19T13:12:12.468Z,4.42
2024-02-19T13:14:40.242Z,4.17
2024-02-19T13:17:13.635Z,3.96
2024-02-19T13:19:44.319Z,3.87
2024-02-19T13:22:12.245Z,3.81
2024-02-19T13:24:40.410Z,3.67
2024-02-19T13:27:07.698Z,3.68
2024-02-19T13:29:35.467Z,3.70
2024-02-19T13:32:02.823Z,3.40
2024-02-19T13:34:31.134Z,3.33
2024-02-19T13:36:58.566Z,3.24
2024-02-19T13:39:25.922Z,3.15
2024-02-19T13:41:53.250Z,3.18
2024-02-19T13:44:20.486Z,3.20
2024-02-19T13:46:47.916Z,2.91
2024-02-19T13:49:15.738Z,2.95
2024-02-19T13:51:43.412Z,3.06
2024-02-19T13:54:10.820Z,3.08
2024-02-19T13:56:38.074Z,3.06
2024-02-19T13:59:07.985Z,2.98
2024-02-19T14:01:38.687Z,2.99
2024-02-19T14:04:08.064Z,2.93
2024-02-19T14:06:35.637Z,2.95
2024-02-19T14:09:03.488Z,2.84
2024-02-19T14:11:31.294Z,2.85
2024-02-19T14:14:02.371Z,2.92
2024-02-19T14:16:31.596Z,2.90
2024-02-19T14:18:59.948Z,2.90
2024-02-19T14:21:27.803Z,2.87
2024-02-19T14:23:55.252Z,2.94
2024-02-19T14:26:26.089Z,2.89
2024-02-19T14:29:02.310Z,2.68
2024-02-19T14:31:31.612Z,2.62
2024-02-19T14:33:59.873Z,2.67
2024-02-19T14:36:27.438Z,2.67
2024-02-19T14:38:54.952Z,2.69
2024-02-19T14:41:22.302Z,2.68
2024-02-19T14:43:49.686Z,2.69
2024-02-19T14:46:17.372Z,2.62
2024-02-19T14:48:46.166Z,2.49
2024-02-19T14:51:16.168Z,2.52
2024-02-19T14:53:45.214Z,2.50
2024-02-19T14:56:12.468Z,2.50
2024-02-19T14:58:39.661Z,2.47
2024-02-19T15:01:07.625Z,2.48
2024-02-19T15:03:35.150Z,2.38
2024-02-19T15:06:05.778Z,2.32
2024-02-19T15:08:33.744Z,2.18
2024-02-19T15:11:01.253Z,1.96
2024-02-19T15:13:28.898Z,2.15
2024-02-19T15:15:56.396Z,2.27
2024-02-19T15:18:23.828Z,2.26
2024-02-19T15:20:53.185Z,2.24
2024-02-19T15:23:21.145Z,2.16
2024-02-19T15:25:48.564Z,2.15
2024-02-19T15:28:16.435Z,2.08
2024-02-19T15:30:43.839Z,2.03
2024-02-19T15:33:11.552Z,2.02
2024-02-19T15:35:39.102Z,2.01
2024-02-19T15:38:09.513Z,1.96
2024-02-19T15:40:37.699Z,1.87
2024-02-19T15:43:05.110Z,1.81
2024-02-19T15:45:34.127Z,1.81
2024-02-19T15:48:01.462Z,1.75
2024-02-19T15:50:28.959Z,1.74
2024-02-19T15:53:01.826Z,1.69
2024-02-19T15:55:33.308Z,1.70
2024-02-19T15:58:00.901Z,1.70
2024-02-19T16:00:28.300Z,1.70
2024-02-19T16:02:55.601Z,1.63
2024-02-19T16:05:22.959Z,1.62
2024-02-19T16:07:50.365Z,1.59
2024-02-19T16:10:17.725Z,1.56
2024-02-19T16:12:45.990Z,1.49
2024-02-19T16:15:14.018Z,1.43
2024-02-19T16:20:10.260Z,1.32
2024-02-19T16:22:39.769Z,1.36
2024-02-19T16:27:44.067Z,1.13
2024-02-19T16:30:14.751Z,1.30
2024-02-19T16:32:42.951Z,1.26
2024-02-19T16:35:12.722Z,1.28
2024-02-19T16:37:41.651Z,1.24
2024-02-19T16:40:10.561Z,1.24
2024-02-19T16:42:39.625Z,1.22
2024-02-19T16:45:08.106Z,1.18
2024-02-19T16:47:36.006Z,1.16
2024-02-19T16:50:04.355Z,1.14
2024-02-19T16:52:32.868Z,1.10
2024-02-19T16:55:07.818Z,1.10
2024-02-19T16:57:36.105Z,1.06
2024-02-19T17:00:05.421Z,1.02
2024-02-19T17:02:36.556Z,0.99
2024-02-19T17:05:05.784Z,0.99
2024-02-19T17:07:34.388Z,0.93
2024-02-19T17:10:05.386Z,0.86
2024-02-19T17:12:33.818Z,0.85
2024-02-19T17:15:01.623Z,0.82
2024-02-19T17:17:29.709Z,0.78
2024-02-19T17:19:57.807Z,0.84
2024-02-19T17:22:27.567Z,0.86
2024-02-19T17:24:55.934Z,0.84
2024-02-19T17:27:23.936Z,0.81
2024-02-19T17:29:51.884Z,0.79
2024-02-19T17:32:19.901Z,0.80
2024-02-19T17:34:51.971Z,0.64
2024-02-19T17:37:21.977Z,1.25
2024-02-19T17:39:50.935Z,1.84
2024-02-19T17:42:20.951Z,1.96
2024-02-19T17:44:48.822Z,1.81
2024-02-19T17:47:16.781Z,1.75
2024-02-19T17:49:44.764Z,1.61
2024-02-19T17:52:12.857Z,1.42
2024-02-19T17:54:40.787Z,1.30
2024-02-19T17:57:09.486Z,1.23
2024-02-19T17:59:37.359Z,1.10
2024-02-19T18:02:05.521Z,0.96
2024-02-19T18:04:33.753Z,0.98
2024-02-19T18:07:02.414Z,0.84
2024-02-19T18:09:30.542Z,0.74
2024-02-19T18:11:58.442Z,0.62
2024-02-19T18:14:29.449Z,0.66
2024-02-19T18:16:57.482Z,1.52
2024-02-19T18:19:25.512Z,1.98
2024-02-19T18:21:55.327Z,2.06
2024-02-19T18:24:23.484Z,1.90
2024-02-19T18:26:51.356Z,1.72
2024-02-19T18:29:19.213Z,1.50
2024-02-19T18:31:51.819Z,1.31
2024-02-19T18:34:19.813Z,1.10
2024-02-19T18:36:48.004Z,0.92
2024-02-19T18:39:15.913Z,0.75
2024-02-19T18:41:43.863Z,0.68
2024-02-19T18:44:11.750Z,0.59
2024-02-19T18:46:39.731Z,0.48
2024-02-19T18:49:08.658Z,0.40
2024-02-19T18:51:42.693Z,0.30
2024-02-19T18:54:10.567Z,0.25
2024-02-19T18:56:38.851Z,-0.14
2024-02-19T18:59:06.719Z,-0.35
2024-02-19T19:01:34.787Z,0.24
2024-02-19T19:04:02.956Z,1.13
2024-02-19T19:06:31.860Z,1.35
2024-02-19T19:09:06.908Z,1.27
2024-02-19T19:11:36.493Z,0.97
2024-02-19T19:14:04.464Z,0.84
2024-02-19T19:16:33.364Z,0.65
2024-02-19T19:19:04.839Z,0.51
2024-02-19T19:21:38.567Z,0.34
2024-02-19T19:24:10.159Z,0.20
2024-02-19T19:26:39.483Z,0.09
2024-02-19T19:29:10.207Z,-0.01
2024-02-19T19:31:38.705Z,0.13
2024-02-19T19:34:06.939Z,0.99
2024-02-19T19:36:34.918Z,1.27
2024-02-19T19:39:04.416Z,1.29
2024-02-19T19:41:35.776Z,1.15
2024-02-19T19:44:06.610Z,1.07
2024-02-19T19:46:34.685Z,0.89
2024-02-19T19:49:04.087Z,0.78
2024-02-19T19:51:32.713Z,0.67
2024-02-19T19:54:00.662Z,0.56
2024-02-19T19:56:28.711Z,0.54
2024-02-19T19:58:59.699Z,0.48
2024-02-19T20:01:27.859Z,1.01
2024-02-19T20:03:55.960Z,1.68
2024-02-19T20:06:24.205Z,1.93
2024-02-19T20:08:54.905Z,1.79
2024-02-19T20:11:23.236Z,1.67
2024-02-19T20:13:51.434Z,1.38
2024-02-19T20:16:20.069Z,1.20
2024-02-19T20:18:48.352Z,1.01
2024-02-19T20:21:18.212Z,0.88
2024-02-19T20:23:46.425Z,0.77
2024-02-19T20:26:14.982Z,0.80
2024-02-19T20:28:42.841Z,1.47
2024-02-19T20:31:10.745Z,1.88
2024-02-19T20:33:39.935Z,1.80
2024-02-19T20:36:08.693Z,1.67
2024-02-19T20:38:36.696Z,1.48
2024-02-19T20:41:04.736Z,1.24
2024-02-19T20:43:32.794Z,1.09
2024-02-19T20:46:01.071Z,0.99
2024-02-19T20:48:29.518Z,0.91
2024-02-19T20:50:57.539Z,0.94
2024-02-19T20:53:25.414Z,1.62
2024-02-19T20:55:53.633Z,1.87
2024-02-19T20:58:21.740Z,1.87
2024-02-19T21:00:49.895Z,1.73
2024-02-19T21:03:18.029Z,1.55
2024-02-19T21:05:45.896Z,1.41
2024-02-19T21:08:13.717Z,1.31
2024-02-19T21:10:44.344Z,1.23
2024-02-19T21:13:12.350Z,1.14
2024-02-19T21:15:40.431Z,0.90
2024-02-19T21:18:10.582Z,1.29
2024-02-19T21:20:38.588Z,1.89
2024-02-19T21:23:06.485Z,1.98
2024-02-19T21:25:35.263Z,1.97
2024-02-19T21:28:04.317Z,1.83
2024-02-19T21:30:32.569Z,1.51
2024-02-19T21:33:00.241Z,1.47
2024-02-19T21:35:27.937Z,1.29
2024-02-19T21:37:58.017Z,1.20
2024-02-19T21:40:25.745Z,0.98
2024-02-19T21:42:53.437Z,1.03
2024-02-19T21:45:21.163Z,1.02
2024-02-19T21:47:48.953Z,0.94
2024-02-19T21:50:16.819Z,0.82
2024-02-19T21:52:47.833Z,0.96
2024-02-19T21:55:15.797Z,0.84
2024-02-19T21:57:43.426Z,0.84
2024-02-19T22:00:13.220Z,1.21
2024-02-19T22:02:40.890Z,1.79
2024-02-19T22:05:09.113Z,1.80
2024-02-19T22:07:38.459Z,1.73
2024-02-19T22:10:07.142Z,1.52
2024-02-19T22:12:34.904Z,1.36
2024-02-19T22:15:02.718Z,1.36
2024-02-19T22:17:30.573Z,1.21
2024-02-19T22:19:58.624Z,1.20
2024-02-19T22:22:28.594Z,1.06
2024-02-19T22:24:56.800Z,1.04
2024-02-19T22:27:24.628Z,1.03
2024-02-19T22:29:52.279Z,1.03
2024-02-19T22:32:20.034Z,0.96
2024-02-19T22:34:47.796Z,1.37
2024-02-19T22:37:15.710Z,1.90
2024-02-19T22:39:43.943Z,2.11
2024-02-19T22:42:12.238Z,1.88
2024-02-19T22:44:39.963Z,1.81
2024-02-19T22:47:10.462Z,1.58
2024-02-19T22:49:39.612Z,1.46
2024-02-19T22:52:08.073Z,1.40
2024-02-19T22:54:38.365Z,1.07
2024-02-19T22:57:06.418Z,0.94
2024-02-19T22:59:34.309Z,1.13
2024-02-19T23:02:02.072Z,1.00
2024-02-19T23:04:29.748Z,0.94
2024-02-19T23:06:58.761Z,0.96
2024-02-19T23:09:26.565Z,0.90
2024-02-19T23:11:54.275Z,0.92
2024-02-19T23:14:21.873Z,0.88
2024-02-19T23:16:49.583Z,1.28
2024-02-19T23:19:17.674Z,1.91
2024-02-19T23:21:45.546Z,1.94
2024-02-19T23:24:13.211Z,1.80
2024-02-19T23:26:40.910Z,1.73
2024-02-19T23:29:09.874Z,1.61
2024-02-19T23:31:37.598Z,1.55
2024-02-19T23:34:05.593Z,1.33
2024-02-19T23:36:38.353Z,1.18
2024-02-19T23:39:06.190Z,1.08
2024-02-19T23:41:33.830Z,1.01
2024-02-19T23:44:01.493Z,0.89
2024-02-19T23:46:29.168Z,0.82
2024-02-19T23:48:56.996Z,0.73
2024-02-19T23:51:24.818Z,0.99
2024-02-19T23:53:52.520Z,1.68
2024-02-19T23:56:20.195Z,1.86
2024-02-19T23:58:47.902Z,1.77
